Burns Pinion Ridge Reserve, California Weather observations

Data are for 10 minute period ending at time listed.
 Day   Time   Solar   Ave.   Ave.  Ave.  Vector  Max.   Baro.   Total    
  of    of     Rad.   Air    Rel.  Wind   Wind   Wind  Press.  Precip.   
Year   Day            Temp.  Hum.  Speed  Dir.   Gust                    
2017   (PST)  Kw/m2    F      %     mph   deg.    mph    mb.     in.     
-------------------------------------------------------------------------
 293    0:00   0.00   59.0    48    2.8   220     5.8   870.6    0.00 
 293    0:10   0.00   56.5    52    2.5     3     3.6   870.8    0.00 
 293    0:20   0.00   54.7    55    1.8   195     5.1   870.9    0.00 
 293    0:30   0.00   55.3    53    4.4   210     6.0   871.2    0.00 
 293    0:40   0.00   57.1    49    5.8   185     8.6   871.1    0.00 
 293    0:50   0.00   59.2    44    5.9   210     9.0   871.0    0.00 
 293    1:00   0.00   60.1    43    6.6   214     9.9   871.0    0.00 
 293    1:10   0.00   58.9    46    3.4   216     6.1   870.9    0.00 
 293    1:20   0.00   57.7    49    5.8   199     8.6   870.6    0.00 
 293    1:30   0.00   58.2    48    3.8   225     8.3   870.7    0.00 
 293    1:40   0.00   56.5    51    3.8   157     8.0   870.3    0.00 
 293    1:50   0.00   56.7    52    5.7   189     8.8   870.1    0.00 
 293    2:00   0.00   57.2    52    6.2   213     9.6   870.1    0.00 
 293    2:10   0.00   56.8    53    5.8   205     8.8   870.1    0.00 
 293    2:20   0.00   55.9    55    3.1   236     6.6   870.1    0.00 
 293    2:30   0.00   55.0    57    4.4   229     8.8   870.2    0.00 
 293    2:40   0.00   56.0    56    6.5   213    10.6   870.3    0.00 
 293    2:50   0.00   55.3    60    5.2   200     9.5   870.3    0.00 
 293    3:00   0.00   55.1    62    5.0   205     8.6   870.1    0.00 
 293    3:10   0.00   54.4    64    2.4   141     4.6   869.9    0.00 
 293    3:20   0.00   53.3    66    1.2   212     4.4   870.0    0.00 
 293    3:30   0.00   53.4    65    4.7   198     8.4   869.9    0.00 
 293    3:40   0.00   53.6    65    4.3   174     7.1   869.9    0.00 
 293    3:50   0.00   52.7    70    4.0   176     9.6   870.1    0.00 
 293    4:00   0.00   52.7    72    6.6   182     9.3   870.1    0.00 
 293    4:10   0.00   53.0    68    5.4   175     8.0   870.0    0.00 
 293    4:20   0.00   53.1    67    5.9   166     7.7   869.9    0.00 
 293    4:30   0.00   53.2    68    6.4   172    10.4   869.9    0.00 
 293    4:40   0.00   53.1    70    4.5   170     7.7   870.0    0.00 
 293    4:50   0.00   52.9    72    6.0   183    10.6   869.9    0.00 
 293    5:00   0.00   53.8    71    9.5   213    15.3   870.1    0.00 
 293    5:10   0.00   53.4    73    7.9   204    11.9   870.2    0.00 
 293    5:20   0.00   52.7    76    6.8   196    14.0   870.3    0.00 
 293    5:30   0.00   52.4    79    9.1   203    14.2   870.4    0.00 
 293    5:40   0.00   51.9    81    8.0   200    15.0   870.3    0.00 
 293    5:50   0.00   51.4    84   10.4   205    16.3   870.4    0.00 
 293    6:00   0.00   51.1    85    9.9   211    14.8   870.4    0.00 
 293    6:10   0.01   50.9    86    7.3   198    13.9   870.6    0.00 
 293    6:20   0.01   51.0    88   11.4   206    16.9   870.7    0.00 
 293    6:30   0.02   51.1    88    9.9   201    17.0   870.7    0.00 
 293    6:40   0.03   51.2    89   10.2   187    16.0   870.7    0.00 
 293    6:50   0.08   51.7    88    9.1   205    15.3   870.9    0.00 
 293    7:00   0.15   53.0    84    9.7   199    15.1   870.8    0.00 
 293    7:10   0.18   53.9    82    7.1   212    13.7   870.9    0.00 
 293    7:20   0.21   54.6    80    6.4   228    10.8   871.2    0.00 
 293    7:30   0.25   55.0    79    6.1   216    10.2   871.1    0.00 
 293    7:40   0.28   56.5    75    4.1   231     6.4   871.3    0.00 
 293    7:50   0.32   57.8    72    4.9   201     9.6   871.2    0.00 
 293    8:00   0.35   58.5    70    5.8   187    10.1   871.0    0.00 
 293    8:10   0.38   57.8    71    6.5   203    10.8   871.1    0.00 
 293    8:20   0.41   57.8    70    5.2   200     9.1   871.1    0.00 
 293    8:30   0.45   59.6    66    3.7   206     7.7   871.2    0.00 
 293    8:40   0.47   60.7    63    4.6   199     7.7   871.4    0.00 
 293    8:50   0.50   61.6    60    4.2   162     7.0   871.3    0.00 
 293    9:00   0.53   62.5    58    3.8   173     7.0   871.5    0.00 
 293    9:10   0.55   62.4    58    6.1   170    12.3   871.4    0.00 
 293    9:20   0.58   62.2    57    4.3   186     7.5   871.2    0.00 
 293    9:30   0.60   63.1    52    6.1   167    11.4   871.0    0.00 
 293    9:40   0.62   64.6    49    5.1   172     8.8   871.0    0.00 
 293    9:50   0.64   64.7    49    3.5   138     8.3   871.0    0.00 
 293   10:00   0.66   65.3    50    2.7   164     7.6   871.2    0.00 
 293   10:10   0.67   63.2    56    7.2   191    11.8   871.4    0.00 
 293   10:20   0.69   62.2    58    5.9   210    11.6   871.4    0.00 
 293   10:30   0.69   63.6    54    5.3   196    10.3   871.6    0.00 
 293   10:40   0.71   64.6    51    6.4   158    11.8   871.4    0.00 
 293   10:50   0.73   65.8    49    5.7   163    10.4   871.2    0.00 
 293   11:00   0.73   65.4    49    5.7   158    11.3   871.0    0.00 
 293   11:10   0.73   65.5    48    4.6   169     9.7   871.1    0.00 
 293   11:20   0.74   67.0    45    5.2   161    12.6   871.4    0.00 
 293   11:30   0.73   66.9    45    6.1   161    11.3   871.3    0.00 
 293   11:40   0.77   66.5    46    8.6   153    16.6   871.0    0.00 
 293   11:50   0.74   65.7    48    5.1   195     9.9   871.3    0.00 
 293   12:00   0.75   65.4    48    6.0   208    10.9   871.3    0.00 
 293   12:10   0.74   65.4    48    6.4   196    11.5   870.9    0.00 
 293   12:20   0.72   67.0    44    6.3   165    11.0   870.7    0.00 
 293   12:30   0.74   67.2    44    6.3   174    13.4   870.6    0.00 
 293   12:40   0.65   67.2    43    6.3   167    12.8   870.5    0.00 
 293   12:50   0.69   67.6    43    6.9   153    14.2   870.5    0.00 
 293   13:00   0.67   67.2    43    6.1   165    10.7   870.4    0.00 
 293   13:10   0.66   66.2    45    7.3   214    14.3   870.4    0.00 
 293   13:20   0.63   67.2    43    6.2   152    13.3   870.4    0.00 
 293   13:30   0.61   67.1    43    6.8   157    14.2   870.5    0.00 
 293   13:40   0.59   66.9    43    5.9   171    12.3   870.6    0.00 
 293   13:50   0.57   67.2    42    6.5   158    12.6   870.4    0.00 
 293   14:00   0.55   66.6    43    5.7   192    14.1   870.4    0.00 
 293   14:10   0.52   66.0    44    7.6   203    15.3   870.6    0.00 
 293   14:20   0.50   64.3    47    7.8   215    14.6   870.6    0.00 
 293   14:30   0.47   65.8    44    7.3   184    13.2   870.4    0.00 
 293   14:40   0.45   65.8    44    7.5   175    18.6   870.3    0.00 
 293   14:50   0.41   65.9    45    6.5   180    15.1   870.3    0.00 
 293   15:00   0.38   65.2    46    7.2   170    13.7   870.4    0.00 
 293   15:10   0.35   64.8    47    5.8   185    12.2   870.3    0.00 
 293   15:20   0.32   64.7    47    6.8   182    12.1   870.3    0.00 
 293   15:30   0.29   63.8    48    7.1   195    15.2   870.2    0.00 
 293   15:40   0.26   63.2    49    7.7   192    12.9   870.0    0.00 
 293   15:50   0.23   63.6    49    6.5   188    15.1   869.8    0.00 
 293   16:00   0.19   63.5    50    5.4   186    12.9   869.8    0.00 
 293   16:10   0.16   62.7    51    6.9   175    13.7   869.8    0.00 
 293   16:20   0.13   60.8    55    7.7   197    15.3   869.7    0.00 
 293   16:30   0.09   60.1    56    7.9   203    15.6   869.6    0.00 
 293   16:40   0.03   58.2    60   10.5   204    16.3   869.3    0.00 
 293   16:50   0.01   57.1    62    9.9   201    15.6   869.3    0.00 
 293   17:00   0.01   56.7    64   11.1   206    16.7   869.3    0.00 
 293   17:10   0.00   56.2    65    8.6   200    13.7   869.3    0.00 
 293   17:20   0.00   55.8    66    6.7   195    11.2   869.4    0.00 
 293   17:30   0.00   55.3    68    8.3   183    13.8   869.4    0.00 
 293   17:40   0.00   55.0    68    8.2   203    16.2   869.6    0.00 
 293   17:50   0.00   54.9    68   10.2   206    16.3   869.6    0.00 
 293   18:00   0.00   54.7    69   10.2   204    14.8   869.6    0.00 
 293   18:10   0.00   54.5    69   10.1   171    18.7   869.9    0.00 
 293   18:20   0.00   54.0    70    5.7   172    10.4   870.2    0.00 
 293   18:30   0.00   53.7    70    5.3   172     9.1   870.2    0.00 
 293   18:40   0.00   53.6    71    6.8   200    12.6   870.2    0.00 
 293   18:50   0.00   53.7    71    8.6   205    12.3   870.3    0.00 
 293   19:00   0.00   53.4    72    6.8   195    11.7   870.3    0.00 
 293   19:10   0.00   53.2    73    7.4   203    11.7   870.3    0.00 
 293   19:20   0.00   53.1    73    7.5   193    11.8   870.4    0.00 
 293   19:30   0.00   52.8    74    6.6   186    10.3   870.5    0.00 
 293   19:40   0.00   52.6    75    5.3   192     9.9   870.6    0.00 
 293   19:50   0.00   52.6    75    8.2   191    14.2   870.5    0.00 
 293   20:00   0.00   52.7    75    6.9   198    10.4   870.7    0.00 
 293   20:10   0.00   52.5    76    8.2   171    13.4   870.8    0.00 
 293   20:20   0.00   52.3    76    6.9   156    12.9   871.0    0.00 
 293   20:30   0.00   52.0    76    5.8   173     8.7   871.0    0.00 
 293   20:40   0.00   52.4    75    6.8   196    10.6   871.0    0.00 
 293   20:50   0.00   52.3    76    6.4   195     9.7   871.1    0.00 
 293   21:00   0.00   52.1    77    5.9   197    10.2   871.2    0.00 
 293   21:10   0.00   52.0    76    4.7   187     7.9   871.3    0.00 
 293   21:20   0.00   51.4    77    3.6   138     5.4   871.6    0.00 
 293   21:30   0.00   50.1    78    2.6   140     4.8   871.7    0.00 
 293   21:40   0.00   50.6    74    3.5    82     7.4   872.1    0.00 
 293   21:50   0.00   49.5    69    3.4    76     6.4   872.2    0.00 
 293   22:00   0.00   48.5    62    1.5    76     5.7   872.2    0.00 
 293   22:10   0.00   47.6    61    2.4   120     5.4   872.1    0.00 
 293   22:20   0.00   47.6    65    2.8   100     5.4   872.3    0.00 
 293   22:30   0.00   47.4    65    1.7   307     4.5   872.1    0.00 
 293   22:40   0.00   44.8    68    2.4   339     4.5   872.5    0.00 
 293   22:50   0.00   44.2    69    3.1   311     4.7   872.6    0.00 
 293   23:00   0.00   43.5    72    2.4   301     4.9   872.9    0.00 

Return to Burns Pinion Ridge Reserve graphs page.


Western Regional Climate Center,wrcc@dri.edu